• Join FlightAware (Why Join?)
  • Login
  • US Flag 
04:11AM EDT


 

Airport Tracker/Info


-or-


 

Live Flight TrackerFlight Track Log ✈ N319EE ✈ 03-Oct-2013 ✈ KBGM - KROC

Flight Track Log - Related Links

Times and Time Zones

All times are in EDT time to prevent confusion due to time zone crossing. See the N319EE flight status page for this flight to view local times or setup timezone preferences in your user account.

Time Position Orientation Groundspeed Altitude Reporting Facility
EDT Latitude Longitude Course Direction KTS MPH feet Rate Location/Type
03:04PM 42.2269 -75.9431 306° West 250 288 3,300  Level New York Center
03:05PM 42.2661 -75.9575 345° North 169 194 5,000 1,980 Climbing New York Center
03:06PM 42.2969 -76.0131 307° West 157 181 7,300 1,500 Climbing New York Center
03:07PM 42.3239 -76.0603 308° West 164 189 8,000 600 Climbing New York Center
03:08PM 42.3603 -76.1306 305° West 201 231 8,500 780 Climbing New York Center
03:09PM 42.4066 -76.3441 306° West  Level FlightAware Approximate
03:09PM 42.3906 -76.1975 301° West 214 246 9,600  Level New York Center
03:10PM 42.4250 -76.2622 306° West 214 246 10,000 180 Climbing New York Center
03:11PM 42.4592 -76.3353 302° West 219 252 10,000  Level New York Center
03:12PM 42.4956 -76.4031 306° West 219 252 10,000 -60 Level New York Center
03:13PM 42.5300 -76.4678 306° West 219 252 9,900 -60 Descending New York Center
03:14PM 42.5661 -76.5358 306° West 219 252 9,900  Level New York Center
03:15PM 42.6044 -76.6039 307° West 224 258 9,900  Level New York Center
03:16PM 42.6187 -76.6840 284° West  Level FlightAware Approximate
03:17PM 42.7042 -76.7847 284° West 228 262 10,000  Level Cleveland Center
03:18PM 42.7414 -76.8544 306° West 231 266 9,600 -720 Descending Cleveland Center
03:19PM 42.7842 -76.9283 308° West 253 291 8,600 -1,020 Descending Cleveland Center
03:20PM 42.8247 -77.0047 306° West 252 290 7,600 -1,020 Descending Cleveland Center
03:21PM 42.8650 -77.0814 306° West 245 282 6,600 -1,020 Descending Cleveland Center
03:22PM 42.9058 -77.1550 307° West 245 282 5,600 -900 Descending Cleveland Center
03:23PM 42.9475 -77.2350 305° West 246 283 4,800 -780 Descending Cleveland Center
03:24PM 42.9936 -77.3164 308° West 250 288 4,000 -720 Descending Cleveland Center
03:25PM 43.0336 -77.3933 305° West 248 285 3,300 -660 Descending Cleveland Center
03:26PM 43.0739 -77.4703 306° West 250 288 2,700 -600 Descending Cleveland Center
03:27PM 43.1142 -77.5444 307° West 248 285 2,100 -600 Descending Cleveland Center
03:28PM 43.1400 -77.6033 301° West 128 147 1,500 -720 Descending Cleveland Center
03:29PM 43.1247 -77.6517 247° West 124 143 700 -840 Descending Cleveland Center
03:31PM 43.1167 -77.6667 316° Northwest  Level FlightAware Approximate
03:38PM 43.1191 -77.6719 316° Northwest  Level Estimated